sensor_id;sensor_type;location;lat;lon;timestamp;P1;durP1;ratioP1;P2;durP2;ratioP2
40757;SDS011;26462;47.384;19.218;2024-03-08T00:01:45;39.58;;;16.33;;
40757;SDS011;26462;47.384;19.218;2024-03-08T00:04:14;37.28;;;14.65;;
40757;SDS011;26462;47.384;19.218;2024-03-08T00:06:43;38.72;;;15.73;;
40757;SDS011;26462;47.384;19.218;2024-03-08T00:09:12;41.50;;;15.80;;
40757;SDS011;26462;47.384;19.218;2024-03-08T00:11:42;43.13;;;16.40;;
40757;SDS011;26462;47.384;19.218;2024-03-08T00:14:10;40.08;;;16.80;;
40757;SDS011;26462;47.384;19.218;2024-03-08T00:16:39;42.33;;;16.60;;
40757;SDS011;26462;47.384;19.218;2024-03-08T00:19:10;41.20;;;16.45;;
40757;SDS011;26462;47.384;19.218;2024-03-08T00:21:40;44.67;;;16.88;;
40757;SDS011;26462;47.384;19.218;2024-03-08T00:24:08;42.13;;;16.30;;
40757;SDS011;26462;47.384;19.218;2024-03-08T00:26:37;42.28;;;16.58;;
40757;SDS011;26462;47.384;19.218;2024-03-08T00:29:05;43.28;;;16.83;;
40757;SDS011;26462;47.384;19.218;2024-03-08T00:31:34;45.08;;;17.95;;
40757;SDS011;26462;47.384;19.218;2024-03-08T00:34:02;43.00;;;16.92;;
40757;SDS011;26462;47.384;19.218;2024-03-08T00:36:31;43.35;;;16.90;;
40757;SDS011;26462;47.384;19.218;2024-03-08T00:39:01;42.85;;;17.48;;
40757;SDS011;26462;47.384;19.218;2024-03-08T00:41:32;45.95;;;17.35;;
40757;SDS011;26462;47.384;19.218;2024-03-08T00:44:01;42.75;;;18.08;;
40757;SDS011;26462;47.384;19.218;2024-03-08T00:46:31;45.03;;;18.02;;
40757;SDS011;26462;47.384;19.218;2024-03-08T00:49:00;48.20;;;17.17;;
40757;SDS011;26462;47.384;19.218;2024-03-08T00:51:29;45.67;;;17.45;;
40757;SDS011;26462;47.384;19.218;2024-03-08T00:53:57;44.88;;;17.88;;
40757;SDS011;26462;47.384;19.218;2024-03-08T00:56:27;51.97;;;19.38;;
40757;SDS011;26462;47.384;19.218;2024-03-08T00:58:56;43.15;;;17.08;;
40757;SDS011;26462;47.384;19.218;2024-03-08T01:01:25;42.33;;;17.90;;
40757;SDS011;26462;47.384;19.218;2024-03-08T01:03:53;46.60;;;18.63;;
40757;SDS011;26462;47.384;19.218;2024-03-08T01:06:23;47.05;;;18.35;;
40757;SDS011;26462;47.384;19.218;2024-03-08T01:08:52;45.97;;;17.77;;
40757;SDS011;26462;47.384;19.218;2024-03-08T01:11:20;49.67;;;19.17;;
40757;SDS011;26462;47.384;19.218;2024-03-08T01:13:50;46.65;;;18.20;;
40757;SDS011;26462;47.384;19.218;2024-03-08T01:16:20;45.15;;;17.20;;
40757;SDS011;26462;47.384;19.218;2024-03-08T01:18:49;50.08;;;17.35;;
40757;SDS011;26462;47.384;19.218;2024-03-08T01:21:17;45.17;;;16.83;;
40757;SDS011;26462;47.384;19.218;2024-03-08T01:23:46;52.15;;;18.75;;
40757;SDS011;26462;47.384;19.218;2024-03-08T01:26:15;45.95;;;17.88;;
40757;SDS011;26462;47.384;19.218;2024-03-08T01:28:43;51.47;;;18.25;;
40757;SDS011;26462;47.384;19.218;2024-03-08T01:31:13;42.92;;;18.05;;
40757;SDS011;26462;47.384;19.218;2024-03-08T01:33:42;43.70;;;16.67;;
40757;SDS011;26462;47.384;19.218;2024-03-08T01:36:11;47.38;;;18.13;;
40757;SDS011;26462;47.384;19.218;2024-03-08T01:38:42;45.95;;;17.60;;
40757;SDS011;26462;47.384;19.218;2024-03-08T01:41:10;42.13;;;16.45;;
40757;SDS011;26462;47.384;19.218;2024-03-08T01:43:40;40.70;;;17.00;;
40757;SDS011;26462;47.384;19.218;2024-03-08T01:46:08;42.65;;;16.52;;
40757;SDS011;26462;47.384;19.218;2024-03-08T01:48:40;42.25;;;17.33;;
40757;SDS011;26462;47.384;19.218;2024-03-08T01:51:09;48.55;;;19.52;;
40757;SDS011;26462;47.384;19.218;2024-03-08T01:53:38;45.28;;;17.35;;
40757;SDS011;26462;47.384;19.218;2024-03-08T01:56:08;47.75;;;19.27;;
40757;SDS011;26462;47.384;19.218;2024-03-08T01:58:39;48.92;;;16.88;;
40757;SDS011;26462;47.384;19.218;2024-03-08T02:01:09;49.20;;;18.00;;
40757;SDS011;26462;47.384;19.218;2024-03-08T02:03:43;45.60;;;17.10;;
40757;SDS011;26462;47.384;19.218;2024-03-08T02:06:13;47.95;;;17.92;;
40757;SDS011;26462;47.384;19.218;2024-03-08T02:08:43;48.35;;;17.65;;
40757;SDS011;26462;47.384;19.218;2024-03-08T02:11:13;44.05;;;17.98;;
40757;SDS011;26462;47.384;19.218;2024-03-08T02:13:42;45.13;;;18.38;;
40757;SDS011;26462;47.384;19.218;2024-03-08T02:16:11;47.55;;;19.63;;
40757;SDS011;26462;47.384;19.218;2024-03-08T02:18:39;43.70;;;17.67;;
40757;SDS011;26462;47.384;19.218;2024-03-08T02:21:10;46.30;;;17.98;;
40757;SDS011;26462;47.384;19.218;2024-03-08T02:23:38;44.58;;;17.17;;
40757;SDS011;26462;47.384;19.218;2024-03-08T02:26:08;49.15;;;18.65;;
40757;SDS011;26462;47.384;19.218;2024-03-08T02:28:36;47.45;;;17.23;;
40757;SDS011;26462;47.384;19.218;2024-03-08T02:31:05;52.72;;;18.77;;
40757;SDS011;26462;47.384;19.218;2024-03-08T02:33:34;46.70;;;18.42;;
40757;SDS011;26462;47.384;19.218;2024-03-08T02:36:03;54.63;;;19.00;;
40757;SDS011;26462;47.384;19.218;2024-03-08T02:38:34;49.72;;;18.50;;
40757;SDS011;26462;47.384;19.218;2024-03-08T02:41:03;42.65;;;17.40;;
40757;SDS011;26462;47.384;19.218;2024-03-08T02:43:32;49.83;;;18.35;;
40757;SDS011;26462;47.384;19.218;2024-03-08T02:46:01;46.72;;;18.05;;
40757;SDS011;26462;47.384;19.218;2024-03-08T02:48:30;48.45;;;17.75;;
40757;SDS011;26462;47.384;19.218;2024-03-08T02:50:58;47.05;;;15.93;;
40757;SDS011;26462;47.384;19.218;2024-03-08T02:53:28;48.67;;;18.00;;
40757;SDS011;26462;47.384;19.218;2024-03-08T02:55:58;50.83;;;19.45;;
40757;SDS011;26462;47.384;19.218;2024-03-08T02:58:27;48.55;;;18.25;;
40757;SDS011;26462;47.384;19.218;2024-03-08T03:00:55;50.58;;;18.10;;
40757;SDS011;26462;47.384;19.218;2024-03-08T03:03:24;48.35;;;18.05;;
40757;SDS011;26462;47.384;19.218;2024-03-08T03:05:53;48.83;;;18.25;;
40757;SDS011;26462;47.384;19.218;2024-03-08T03:08:23;51.97;;;18.38;;
40757;SDS011;26462;47.384;19.218;2024-03-08T03:10:51;54.80;;;18.60;;
40757;SDS011;26462;47.384;19.218;2024-03-08T03:13:24;46.20;;;17.85;;
40757;SDS011;26462;47.384;19.218;2024-03-08T03:15:56;48.28;;;18.67;;
40757;SDS011;26462;47.384;19.218;2024-03-08T03:18:25;51.95;;;17.13;;
40757;SDS011;26462;47.384;19.218;2024-03-08T03:20:54;48.30;;;18.70;;
40757;SDS011;26462;47.384;19.218;2024-03-08T03:23:22;45.83;;;17.45;;
40757;SDS011;26462;47.384;19.218;2024-03-08T03:25:53;46.85;;;16.48;;
40757;SDS011;26462;47.384;19.218;2024-03-08T03:28:25;48.53;;;18.13;;
40757;SDS011;26462;47.384;19.218;2024-03-08T03:30:55;45.30;;;15.98;;
40757;SDS011;26462;47.384;19.218;2024-03-08T03:33:25;50.95;;;18.30;;
40757;SDS011;26462;47.384;19.218;2024-03-08T03:35:54;49.33;;;17.55;;
40757;SDS011;26462;47.384;19.218;2024-03-08T03:38:22;46.83;;;19.00;;
40757;SDS011;26462;47.384;19.218;2024-03-08T03:40:52;50.35;;;18.58;;
40757;SDS011;26462;47.384;19.218;2024-03-08T03:43:25;51.25;;;18.15;;
40757;SDS011;26462;47.384;19.218;2024-03-08T03:45:54;55.55;;;19.13;;
40757;SDS011;26462;47.384;19.218;2024-03-08T03:48:23;52.22;;;17.67;;
40757;SDS011;26462;47.384;19.218;2024-03-08T03:50:51;58.92;;;19.85;;
40757;SDS011;26462;47.384;19.218;2024-03-08T03:53:20;50.22;;;17.52;;
40757;SDS011;26462;47.384;19.218;2024-03-08T03:55:48;53.58;;;19.25;;
40757;SDS011;26462;47.384;19.218;2024-03-08T03:58:17;48.95;;;19.08;;
40757;SDS011;26462;47.384;19.218;2024-03-08T04:00:51;54.33;;;19.38;;
40757;SDS011;26462;47.384;19.218;2024-03-08T04:03:20;48.10;;;17.42;;
40757;SDS011;26462;47.384;19.218;2024-03-08T04:05:52;50.22;;;18.75;;
40757;SDS011;26462;47.384;19.218;2024-03-08T04:08:22;48.13;;;17.58;;
40757;SDS011;26462;47.384;19.218;2024-03-08T04:11:07;47.90;;;18.17;;
40757;SDS011;26462;47.384;19.218;2024-03-08T04:13:39;51.05;;;18.65;;
40757;SDS011;26462;47.384;19.218;2024-03-08T04:16:19;46.70;;;18.55;;
40757;SDS011;26462;47.384;19.218;2024-03-08T04:18:48;52.08;;;18.77;;
40757;SDS011;26462;47.384;19.218;2024-03-08T04:21:17;52.17;;;18.67;;
40757;SDS011;26462;47.384;19.218;2024-03-08T04:23:46;47.17;;;18.02;;
40757;SDS011;26462;47.384;19.218;2024-03-08T04:26:16;53.17;;;18.65;;
40757;SDS011;26462;47.384;19.218;2024-03-08T04:28:47;55.75;;;19.45;;
40757;SDS011;26462;47.384;19.218;2024-03-08T04:31:15;52.55;;;20.13;;
40757;SDS011;26462;47.384;19.218;2024-03-08T04:33:45;49.85;;;18.58;;
40757;SDS011;26462;47.384;19.218;2024-03-08T04:36:15;54.05;;;19.38;;
40757;SDS011;26462;47.384;19.218;2024-03-08T04:38:45;48.65;;;18.88;;
40757;SDS011;26462;47.384;19.218;2024-03-08T04:41:14;57.03;;;19.40;;
40757;SDS011;26462;47.384;19.218;2024-03-08T04:43:44;50.30;;;17.90;;
40757;SDS011;26462;47.384;19.218;2024-03-08T04:46:13;49.25;;;18.60;;
40757;SDS011;26462;47.384;19.218;2024-03-08T04:48:46;48.63;;;18.83;;
40757;SDS011;26462;47.384;19.218;2024-03-08T04:51:15;48.97;;;17.42;;
40757;SDS011;26462;47.384;19.218;2024-03-08T04:53:49;55.25;;;19.40;;
40757;SDS011;26462;47.384;19.218;2024-03-08T04:56:18;47.22;;;18.75;;
40757;SDS011;26462;47.384;19.218;2024-03-08T04:58:47;53.08;;;17.85;;
40757;SDS011;26462;47.384;19.218;2024-03-08T05:01:18;48.15;;;18.52;;
40757;SDS011;26462;47.384;19.218;2024-03-08T05:03:53;47.45;;;17.50;;
40757;SDS011;26462;47.384;19.218;2024-03-08T05:06:31;51.97;;;19.02;;
40757;SDS011;26462;47.384;19.218;2024-03-08T05:09:04;49.80;;;19.00;;
40757;SDS011;26462;47.384;19.218;2024-03-08T05:11:40;46.58;;;18.42;;
40757;SDS011;26462;47.384;19.218;2024-03-08T05:14:11;58.47;;;20.13;;
40757;SDS011;26462;47.384;19.218;2024-03-08T05:19:17;44.63;;;16.63;;
40757;SDS011;26462;47.384;19.218;2024-03-08T05:24:18;52.97;;;18.23;;
40757;SDS011;26462;47.384;19.218;2024-03-08T05:26:47;54.88;;;19.38;;
40757;SDS011;26462;47.384;19.218;2024-03-08T05:31:51;51.03;;;18.55;;
40757;SDS011;26462;47.384;19.218;2024-03-08T05:34:26;56.30;;;19.75;;
40757;SDS011;26462;47.384;19.218;2024-03-08T05:37:12;45.80;;;17.15;;
40757;SDS011;26462;47.384;19.218;2024-03-08T05:39:45;45.65;;;17.77;;
40757;SDS011;26462;47.384;19.218;2024-03-08T05:42:13;47.40;;;18.02;;
40757;SDS011;26462;47.384;19.218;2024-03-08T05:44:42;48.45;;;19.27;;
40757;SDS011;26462;47.384;19.218;2024-03-08T05:47:12;50.42;;;17.88;;
40757;SDS011;26462;47.384;19.218;2024-03-08T05:49:44;45.60;;;16.97;;
40757;SDS011;26462;47.384;19.218;2024-03-08T05:52:23;49.38;;;18.60;;
40757;SDS011;26462;47.384;19.218;2024-03-08T05:55:13;50.05;;;18.23;;
40757;SDS011;26462;47.384;19.218;2024-03-08T05:57:42;46.72;;;17.33;;
40757;SDS011;26462;47.384;19.218;2024-03-08T06:00:11;49.42;;;17.20;;
40757;SDS011;26462;47.384;19.218;2024-03-08T06:02:42;50.28;;;17.42;;
40757;SDS011;26462;47.384;19.218;2024-03-08T06:05:13;45.90;;;17.48;;
40757;SDS011;26462;47.384;19.218;2024-03-08T06:07:43;49.03;;;17.77;;
40757;SDS011;26462;47.384;19.218;2024-03-08T06:10:18;49.80;;;17.10;;
40757;SDS011;26462;47.384;19.218;2024-03-08T06:12:47;53.35;;;19.23;;
40757;SDS011;26462;47.384;19.218;2024-03-08T06:16:06;45.22;;;16.45;;
40757;SDS011;26462;47.384;19.218;2024-03-08T06:19:54;52.08;;;19.85;;
40757;SDS011;26462;47.384;19.218;2024-03-08T06:28:04;49.95;;;18.88;;
40757;SDS011;26462;47.384;19.218;2024-03-08T06:30:37;50.25;;;18.85;;
40757;SDS011;26462;47.384;19.218;2024-03-08T06:33:22;45.58;;;17.70;;
40757;SDS011;26462;47.384;19.218;2024-03-08T06:35:54;48.22;;;16.95;;
40757;SDS011;26462;47.384;19.218;2024-03-08T06:38:25;51.45;;;18.92;;
40757;SDS011;26462;47.384;19.218;2024-03-08T06:41:03;53.28;;;19.20;;
40757;SDS011;26462;47.384;19.218;2024-03-08T06:43:44;54.38;;;18.98;;
40757;SDS011;26462;47.384;19.218;2024-03-08T06:46:19;48.33;;;18.55;;
40757;SDS011;26462;47.384;19.218;2024-03-08T06:48:51;54.83;;;18.00;;
40757;SDS011;26462;47.384;19.218;2024-03-08T06:51:23;48.80;;;18.80;;
40757;SDS011;26462;47.384;19.218;2024-03-08T06:53:56;43.78;;;17.58;;
40757;SDS011;26462;47.384;19.218;2024-03-08T06:56:26;46.92;;;17.83;;
40757;SDS011;26462;47.384;19.218;2024-03-08T06:59:09;51.88;;;17.25;;
40757;SDS011;26462;47.384;19.218;2024-03-08T07:01:42;52.92;;;18.35;;
40757;SDS011;26462;47.384;19.218;2024-03-08T07:04:12;48.40;;;17.85;;
40757;SDS011;26462;47.384;19.218;2024-03-08T07:06:53;49.65;;;18.02;;
40757;SDS011;26462;47.384;19.218;2024-03-08T07:09:26;48.10;;;17.17;;
40757;SDS011;26462;47.384;19.218;2024-03-08T07:12:04;50.70;;;18.25;;
40757;SDS011;26462;47.384;19.218;2024-03-08T07:14:45;42.83;;;15.18;;
40757;SDS011;26462;47.384;19.218;2024-03-08T07:17:31;49.95;;;17.98;;
40757;SDS011;26462;47.384;19.218;2024-03-08T07:20:05;47.47;;;18.35;;
40757;SDS011;26462;47.384;19.218;2024-03-08T07:22:43;45.72;;;17.48;;
40757;SDS011;26462;47.384;19.218;2024-03-08T07:25:15;45.63;;;17.25;;
40757;SDS011;26462;47.384;19.218;2024-03-08T07:27:58;51.95;;;18.17;;
40757;SDS011;26462;47.384;19.218;2024-03-08T07:33:36;54.10;;;18.55;;
40757;SDS011;26462;47.384;19.218;2024-03-08T07:36:05;50.92;;;18.00;;
40757;SDS011;26462;47.384;19.218;2024-03-08T07:38:49;48.72;;;18.20;;
40757;SDS011;26462;47.384;19.218;2024-03-08T07:41:17;57.08;;;18.85;;
40757;SDS011;26462;47.384;19.218;2024-03-08T07:43:46;49.83;;;18.48;;
40757;SDS011;26462;47.384;19.218;2024-03-08T07:46:18;43.55;;;14.77;;
40757;SDS011;26462;47.384;19.218;2024-03-08T07:48:50;52.33;;;16.63;;
40757;SDS011;26462;47.384;19.218;2024-03-08T07:51:21;49.45;;;18.30;;
40757;SDS011;26462;47.384;19.218;2024-03-08T07:53:49;54.50;;;18.17;;
40757;SDS011;26462;47.384;19.218;2024-03-08T07:56:20;50.08;;;18.38;;
40757;SDS011;26462;47.384;19.218;2024-03-08T07:58:50;55.67;;;17.70;;
40757;SDS011;26462;47.384;19.218;2024-03-08T08:01:24;55.40;;;18.38;;
40757;SDS011;26462;47.384;19.218;2024-03-08T08:04:05;49.17;;;16.05;;
40757;SDS011;26462;47.384;19.218;2024-03-08T08:06:40;43.00;;;14.75;;
40757;SDS011;26462;47.384;19.218;2024-03-08T08:09:09;53.45;;;19.65;;
40757;SDS011;26462;47.384;19.218;2024-03-08T08:11:41;50.77;;;17.73;;
40757;SDS011;26462;47.384;19.218;2024-03-08T08:14:10;56.53;;;19.13;;
40757;SDS011;26462;47.384;19.218;2024-03-08T08:16:43;53.90;;;18.90;;
40757;SDS011;26462;47.384;19.218;2024-03-08T08:19:14;54.22;;;19.77;;
40757;SDS011;26462;47.384;19.218;2024-03-08T08:21:42;52.95;;;17.45;;
40757;SDS011;26462;47.384;19.218;2024-03-08T08:24:17;54.92;;;17.88;;
40757;SDS011;26462;47.384;19.218;2024-03-08T08:26:47;49.67;;;17.98;;
40757;SDS011;26462;47.384;19.218;2024-03-08T08:29:16;52.83;;;19.00;;
40757;SDS011;26462;47.384;19.218;2024-03-08T08:31:48;42.72;;;17.70;;
40757;SDS011;26462;47.384;19.218;2024-03-08T08:34:17;51.72;;;17.95;;
40757;SDS011;26462;47.384;19.218;2024-03-08T08:36:49;42.47;;;14.32;;
40757;SDS011;26462;47.384;19.218;2024-03-08T08:39:21;44.25;;;16.20;;
40757;SDS011;26462;47.384;19.218;2024-03-08T08:41:51;47.55;;;18.15;;
40757;SDS011;26462;47.384;19.218;2024-03-08T08:44:22;54.95;;;19.17;;
40757;SDS011;26462;47.384;19.218;2024-03-08T08:46:54;46.35;;;15.63;;
40757;SDS011;26462;47.384;19.218;2024-03-08T08:49:31;47.03;;;16.35;;
40757;SDS011;26462;47.384;19.218;2024-03-08T08:52:03;42.30;;;17.23;;
40757;SDS011;26462;47.384;19.218;2024-03-08T08:54:43;44.60;;;15.77;;
40757;SDS011;26462;47.384;19.218;2024-03-08T08:59:47;40.45;;;16.88;;
40757;SDS011;26462;47.384;19.218;2024-03-08T09:04:47;39.88;;;15.30;;
40757;SDS011;26462;47.384;19.218;2024-03-08T09:07:21;43.33;;;17.07;;
40757;SDS011;26462;47.384;19.218;2024-03-08T09:09:56;45.67;;;17.05;;
40757;SDS011;26462;47.384;19.218;2024-03-08T09:12:25;44.70;;;17.90;;
40757;SDS011;26462;47.384;19.218;2024-03-08T09:14:56;48.42;;;17.30;;
40757;SDS011;26462;47.384;19.218;2024-03-08T09:17:28;46.50;;;16.92;;
40757;SDS011;26462;47.384;19.218;2024-03-08T09:19:57;45.58;;;16.02;;
40757;SDS011;26462;47.384;19.218;2024-03-08T09:22:26;44.60;;;17.73;;
40757;SDS011;26462;47.384;19.218;2024-03-08T09:24:55;41.78;;;16.80;;
40757;SDS011;26462;47.384;19.218;2024-03-08T09:27:24;46.03;;;16.90;;
40757;SDS011;26462;47.384;19.218;2024-03-08T09:29:52;43.08;;;16.95;;
40757;SDS011;26462;47.384;19.218;2024-03-08T09:32:21;42.65;;;17.00;;
40757;SDS011;26462;47.384;19.218;2024-03-08T09:34:56;45.95;;;17.13;;
40757;SDS011;26462;47.384;19.218;2024-03-08T09:37:25;44.30;;;17.65;;
40757;SDS011;26462;47.384;19.218;2024-03-08T09:39:54;44.15;;;17.00;;
40757;SDS011;26462;47.384;19.218;2024-03-08T09:42:22;47.58;;;18.38;;
40757;SDS011;26462;47.384;19.218;2024-03-08T09:44:51;42.60;;;16.00;;
40757;SDS011;26462;47.384;19.218;2024-03-08T09:47:20;38.30;;;16.05;;
40757;SDS011;26462;47.384;19.218;2024-03-08T09:49:59;45.20;;;18.15;;
40757;SDS011;26462;47.384;19.218;2024-03-08T09:52:29;47.28;;;18.35;;
40757;SDS011;26462;47.384;19.218;2024-03-08T09:54:59;45.10;;;17.95;;
40757;SDS011;26462;47.384;19.218;2024-03-08T09:57:34;46.88;;;16.30;;
40757;SDS011;26462;47.384;19.218;2024-03-08T10:00:06;43.80;;;17.63;;
40757;SDS011;26462;47.384;19.218;2024-03-08T10:02:52;44.50;;;16.20;;
40757;SDS011;26462;47.384;19.218;2024-03-08T10:05:23;45.20;;;19.80;;
40757;SDS011;26462;47.384;19.218;2024-03-08T10:07:51;47.78;;;19.23;;
40757;SDS011;26462;47.384;19.218;2024-03-08T10:10:21;42.17;;;15.52;;
40757;SDS011;26462;47.384;19.218;2024-03-08T10:12:50;47.63;;;18.85;;
40757;SDS011;26462;47.384;19.218;2024-03-08T10:15:21;49.45;;;17.85;;
40757;SDS011;26462;47.384;19.218;2024-03-08T10:17:51;49.85;;;18.02;;
40757;SDS011;26462;47.384;19.218;2024-03-08T10:20:31;53.97;;;18.33;;
40757;SDS011;26462;47.384;19.218;2024-03-08T10:23:01;46.58;;;19.27;;
40757;SDS011;26462;47.384;19.218;2024-03-08T10:25:38;44.40;;;18.52;;
40757;SDS011;26462;47.384;19.218;2024-03-08T10:28:09;49.50;;;17.73;;
40757;SDS011;26462;47.384;19.218;2024-03-08T10:30:37;47.45;;;16.95;;
40757;SDS011;26462;47.384;19.218;2024-03-08T10:33:06;47.60;;;17.75;;
40757;SDS011;26462;47.384;19.218;2024-03-08T10:35:36;44.10;;;17.52;;
40757;SDS011;26462;47.384;19.218;2024-03-08T10:38:04;46.92;;;18.77;;
40757;SDS011;26462;47.384;19.218;2024-03-08T10:40:37;47.97;;;19.05;;
40757;SDS011;26462;47.384;19.218;2024-03-08T10:43:09;44.40;;;18.05;;
40757;SDS011;26462;47.384;19.218;2024-03-08T10:45:47;50.95;;;19.50;;
40757;SDS011;26462;47.384;19.218;2024-03-08T10:48:26;49.33;;;18.38;;
40757;SDS011;26462;47.384;19.218;2024-03-08T10:51:05;42.85;;;17.15;;
40757;SDS011;26462;47.384;19.218;2024-03-08T10:53:38;40.45;;;17.13;;
40757;SDS011;26462;47.384;19.218;2024-03-08T10:56:08;43.70;;;17.80;;
40757;SDS011;26462;47.384;19.218;2024-03-08T10:58:37;41.35;;;16.02;;
40757;SDS011;26462;47.384;19.218;2024-03-08T11:01:06;45.95;;;17.00;;
40757;SDS011;26462;47.384;19.218;2024-03-08T11:03:43;51.33;;;19.02;;
40757;SDS011;26462;47.384;19.218;2024-03-08T11:06:18;48.60;;;20.48;;
40757;SDS011;26462;47.384;19.218;2024-03-08T11:08:50;34.22;;;15.15;;
40757;SDS011;26462;47.384;19.218;2024-03-08T11:11:26;37.03;;;15.70;;
40757;SDS011;26462;47.384;19.218;2024-03-08T11:14:00;34.67;;;14.65;;
40757;SDS011;26462;47.384;19.218;2024-03-08T11:16:38;29.42;;;15.60;;
40757;SDS011;26462;47.384;19.218;2024-03-08T11:19:26;33.53;;;14.35;;
40757;SDS011;26462;47.384;19.218;2024-03-08T11:22:00;29.02;;;13.38;;
40757;SDS011;26462;47.384;19.218;2024-03-08T11:24:39;26.60;;;11.68;;
40757;SDS011;26462;47.384;19.218;2024-03-08T11:27:09;26.30;;;11.57;;
40757;SDS011;26462;47.384;19.218;2024-03-08T11:29:38;25.65;;;11.30;;
40757;SDS011;26462;47.384;19.218;2024-03-08T11:32:07;22.58;;;11.63;;
40757;SDS011;26462;47.384;19.218;2024-03-08T11:34:36;16.42;;;8.85;;
40757;SDS011;26462;47.384;19.218;2024-03-08T11:37:08;17.05;;;8.65;;
40757;SDS011;26462;47.384;19.218;2024-03-08T11:39:46;18.52;;;8.55;;
40757;SDS011;26462;47.384;19.218;2024-03-08T11:42:16;15.82;;;7.10;;
40757;SDS011;26462;47.384;19.218;2024-03-08T11:44:44;14.55;;;8.00;;
40757;SDS011;26462;47.384;19.218;2024-03-08T11:47:14;15.68;;;8.43;;
40757;SDS011;26462;47.384;19.218;2024-03-08T11:49:44;16.67;;;9.00;;
40757;SDS011;26462;47.384;19.218;2024-03-08T11:52:17;16.67;;;9.00;;
40757;SDS011;26462;47.384;19.218;2024-03-08T11:54:51;19.15;;;10.15;;
40757;SDS011;26462;47.384;19.218;2024-03-08T11:57:24;14.50;;;8.25;;
40757;SDS011;26462;47.384;19.218;2024-03-08T11:59:55;15.25;;;8.02;;
40757;SDS011;26462;47.384;19.218;2024-03-08T12:02:25;14.05;;;8.18;;
40757;SDS011;26462;47.384;19.218;2024-03-08T12:04:57;14.73;;;7.25;;
40757;SDS011;26462;47.384;19.218;2024-03-08T12:07:29;14.98;;;8.05;;
40757;SDS011;26462;47.384;19.218;2024-03-08T12:10:15;14.48;;;8.30;;
40757;SDS011;26462;47.384;19.218;2024-03-08T12:12:45;13.88;;;9.07;;
40757;SDS011;26462;47.384;19.218;2024-03-08T12:15:14;14.85;;;8.10;;
40757;SDS011;26462;47.384;19.218;2024-03-08T12:17:44;15.50;;;8.23;;
40757;SDS011;26462;47.384;19.218;2024-03-08T12:20:15;14.05;;;7.25;;
40757;SDS011;26462;47.384;19.218;2024-03-08T12:22:46;14.25;;;7.20;;
40757;SDS011;26462;47.384;19.218;2024-03-08T12:25:15;14.73;;;8.50;;
40757;SDS011;26462;47.384;19.218;2024-03-08T12:27:43;16.00;;;8.70;;
40757;SDS011;26462;47.384;19.218;2024-03-08T12:30:19;17.92;;;8.77;;
40757;SDS011;26462;47.384;19.218;2024-03-08T12:32:50;18.27;;;9.15;;
40757;SDS011;26462;47.384;19.218;2024-03-08T12:35:21;15.50;;;7.80;;
40757;SDS011;26462;47.384;19.218;2024-03-08T12:37:51;19.73;;;10.07;;
40757;SDS011;26462;47.384;19.218;2024-03-08T12:40:27;16.40;;;8.32;;
40757;SDS011;26462;47.384;19.218;2024-03-08T12:42:58;21.27;;;10.40;;
40757;SDS011;26462;47.384;19.218;2024-03-08T12:45:27;28.25;;;14.65;;
40757;SDS011;26462;47.384;19.218;2024-03-08T12:47:56;41.15;;;22.13;;
40757;SDS011;26462;47.384;19.218;2024-03-08T12:50:25;25.10;;;12.07;;
40757;SDS011;26462;47.384;19.218;2024-03-08T12:52:58;20.30;;;11.25;;
40757;SDS011;26462;47.384;19.218;2024-03-08T12:55:26;18.10;;;9.65;;
40757;SDS011;26462;47.384;19.218;2024-03-08T12:57:55;14.85;;;8.60;;
40757;SDS011;26462;47.384;19.218;2024-03-08T13:00:25;15.90;;;7.15;;
40757;SDS011;26462;47.384;19.218;2024-03-08T13:02:54;16.45;;;9.00;;
40757;SDS011;26462;47.384;19.218;2024-03-08T13:05:23;14.38;;;6.65;;
40757;SDS011;26462;47.384;19.218;2024-03-08T13:07:52;16.40;;;7.50;;
40757;SDS011;26462;47.384;19.218;2024-03-08T13:10:22;17.40;;;7.82;;
40757;SDS011;26462;47.384;19.218;2024-03-08T13:12:51;46.15;;;19.17;;
40757;SDS011;26462;47.384;19.218;2024-03-08T13:15:21;39.72;;;18.75;;
40757;SDS011;26462;47.384;19.218;2024-03-08T13:17:50;32.03;;;17.35;;
40757;SDS011;26462;47.384;19.218;2024-03-08T13:20:18;33.17;;;20.35;;
40757;SDS011;26462;47.384;19.218;2024-03-08T13:22:59;16.77;;;8.48;;
40757;SDS011;26462;47.384;19.218;2024-03-08T13:25:30;18.00;;;9.07;;
40757;SDS011;26462;47.384;19.218;2024-03-08T13:27:58;14.82;;;7.88;;
40757;SDS011;26462;47.384;19.218;2024-03-08T13:30:27;19.45;;;8.63;;
40757;SDS011;26462;47.384;19.218;2024-03-08T13:32:57;14.75;;;7.88;;
40757;SDS011;26462;47.384;19.218;2024-03-08T13:35:26;17.27;;;8.00;;
40757;SDS011;26462;47.384;19.218;2024-03-08T13:37:57;16.23;;;8.05;;
40757;SDS011;26462;47.384;19.218;2024-03-08T13:40:25;16.48;;;7.88;;
40757;SDS011;26462;47.384;19.218;2024-03-08T13:42:55;12.85;;;6.25;;
40757;SDS011;26462;47.384;19.218;2024-03-08T13:45:25;15.18;;;7.60;;
40757;SDS011;26462;47.384;19.218;2024-03-08T13:47:53;15.93;;;7.95;;
40757;SDS011;26462;47.384;19.218;2024-03-08T13:50:22;23.33;;;12.65;;
40757;SDS011;26462;47.384;19.218;2024-03-08T13:52:52;26.27;;;16.38;;
40757;SDS011;26462;47.384;19.218;2024-03-08T13:55:22;38.92;;;23.63;;
40757;SDS011;26462;47.384;19.218;2024-03-08T13:57:55;28.98;;;14.95;;
40757;SDS011;26462;47.384;19.218;2024-03-08T14:00:26;22.45;;;11.57;;
40757;SDS011;26462;47.384;19.218;2024-03-08T14:02:59;17.63;;;9.20;;
40757;SDS011;26462;47.384;19.218;2024-03-08T14:05:28;18.35;;;10.40;;
40757;SDS011;26462;47.384;19.218;2024-03-08T14:07:58;24.55;;;12.55;;
40757;SDS011;26462;47.384;19.218;2024-03-08T14:10:27;23.77;;;11.93;;
40757;SDS011;26462;47.384;19.218;2024-03-08T14:12:59;23.98;;;11.65;;
40757;SDS011;26462;47.384;19.218;2024-03-08T14:15:29;22.00;;;10.50;;
40757;SDS011;26462;47.384;19.218;2024-03-08T14:17:57;21.88;;;9.93;;
40757;SDS011;26462;47.384;19.218;2024-03-08T14:20:26;26.77;;;12.45;;
40757;SDS011;26462;47.384;19.218;2024-03-08T14:22:55;22.17;;;10.40;;
40757;SDS011;26462;47.384;19.218;2024-03-08T14:25:24;21.55;;;9.40;;
40757;SDS011;26462;47.384;19.218;2024-03-08T14:27:53;21.90;;;10.65;;
40757;SDS011;26462;47.384;19.218;2024-03-08T14:30:26;23.65;;;11.77;;
40757;SDS011;26462;47.384;19.218;2024-03-08T14:33:01;27.02;;;10.80;;
40757;SDS011;26462;47.384;19.218;2024-03-08T14:35:32;25.63;;;12.05;;
40757;SDS011;26462;47.384;19.218;2024-03-08T14:38:01;28.42;;;12.25;;
40757;SDS011;26462;47.384;19.218;2024-03-08T14:40:30;25.55;;;11.63;;
40757;SDS011;26462;47.384;19.218;2024-03-08T14:42:58;26.75;;;12.40;;
40757;SDS011;26462;47.384;19.218;2024-03-08T14:45:33;31.38;;;13.35;;
40757;SDS011;26462;47.384;19.218;2024-03-08T14:48:01;32.47;;;13.35;;
40757;SDS011;26462;47.384;19.218;2024-03-08T14:50:31;31.40;;;12.70;;
40757;SDS011;26462;47.384;19.218;2024-03-08T14:53:00;42.33;;;21.40;;
40757;SDS011;26462;47.384;19.218;2024-03-08T14:55:33;31.95;;;15.88;;
40757;SDS011;26462;47.384;19.218;2024-03-08T14:58:02;34.15;;;14.20;;